PAAQ METAR and TAF weather

Enter ICAO airport designator
Station Type Date Time Source
PAAQ METAR 2019/02/20 16:53 UTC NOAA

PAAQ 201653Z 05003KT 10SM CLR M12/M14 A3009 RMK AO2 SLP197 T11221139


Station Type Date Time Source
PAAQ Decoded METAR 2019/02/20 16:53 UTC NOAA

PALMER MUNICIPAL AIRPORT, AK, United States (PAAQ) 61-36N 149-06W
Feb 20, 2019 - 11:53 AM EST / 2019.02.20 1653 UTC
Wind: from the NE (050 degrees) at 3 MPH (3 KT):0
Visibility: 10 mile(s):0
Sky conditions: clear
Temperature: 10.0 F (-12.2 C)
Dew Point: 7.0 F (-13.9 C)
Relative Humidity: 87%
Pressure (altimeter): 30.09 in. Hg (1018 hPa)
ob: PAAQ 201653Z 05003KT 10SM CLR M12/M14 A3009 RMK AO2 SLP197 T11221139
cycle: 17

Station Type Date Time Source
PAAQ TAF 2019/02/20 18:36 UTC NOAA

TAF PAAQ 201736Z 2018/2118 VRB02KT P6SM OVC250
FM202200 02005KT P6SM VCSH SCT020 BKN035
FM210100 36005KT 2SM -SN BR BKN020 OVC030
FM211500 02010KT 6SM -SN BR BKN035 OVC050


Example: see airport list